sensor_id;sensor_type;location;lat;lon;timestamp;P1;durP1;ratioP1;P2;durP2;ratioP2
35188;SDS011;21762;54.480;18.556;2022-11-14T00:02:21;9.98;;;4.10;;
35188;SDS011;21762;54.480;18.556;2022-11-14T00:05:08;8.93;;;4.40;;
35188;SDS011;21762;54.480;18.556;2022-11-14T00:07:56;8.48;;;4.35;;
35188;SDS011;21762;54.480;18.556;2022-11-14T00:10:44;8.30;;;3.80;;
35188;SDS011;21762;54.480;18.556;2022-11-14T00:13:31;12.07;;;4.72;;
35188;SDS011;21762;54.480;18.556;2022-11-14T00:16:20;10.45;;;5.00;;
35188;SDS011;21762;54.480;18.556;2022-11-14T00:19:07;10.02;;;5.30;;
35188;SDS011;21762;54.480;18.556;2022-11-14T00:21:57;10.63;;;6.85;;
35188;SDS011;21762;54.480;18.556;2022-11-14T00:24:45;11.98;;;5.30;;
35188;SDS011;21762;54.480;18.556;2022-11-14T00:27:33;12.02;;;5.63;;
35188;SDS011;21762;54.480;18.556;2022-11-14T00:30:20;7.72;;;4.68;;
35188;SDS011;21762;54.480;18.556;2022-11-14T00:33:07;12.60;;;6.30;;
35188;SDS011;21762;54.480;18.556;2022-11-14T00:35:54;10.18;;;5.80;;
35188;SDS011;21762;54.480;18.556;2022-11-14T00:38:41;14.27;;;6.30;;
35188;SDS011;21762;54.480;18.556;2022-11-14T00:41:29;13.25;;;6.50;;
35188;SDS011;21762;54.480;18.556;2022-11-14T00:44:16;16.73;;;6.18;;
35188;SDS011;21762;54.480;18.556;2022-11-14T00:47:03;11.45;;;6.60;;
35188;SDS011;21762;54.480;18.556;2022-11-14T00:49:50;11.98;;;6.10;;
35188;SDS011;21762;54.480;18.556;2022-11-14T00:52:37;12.02;;;5.80;;
35188;SDS011;21762;54.480;18.556;2022-11-14T00:55:24;14.68;;;6.70;;
35188;SDS011;21762;54.480;18.556;2022-11-14T00:58:12;12.85;;;6.28;;
35188;SDS011;21762;54.480;18.556;2022-11-14T01:00:59;9.88;;;5.55;;
35188;SDS011;21762;54.480;18.556;2022-11-14T01:03:47;14.38;;;6.68;;
35188;SDS011;21762;54.480;18.556;2022-11-14T01:06:34;10.80;;;5.97;;
35188;SDS011;21762;54.480;18.556;2022-11-14T01:09:21;11.40;;;6.05;;
35188;SDS011;21762;54.480;18.556;2022-11-14T01:12:08;11.80;;;5.75;;
35188;SDS011;21762;54.480;18.556;2022-11-14T01:14:56;13.68;;;5.80;;
35188;SDS011;21762;54.480;18.556;2022-11-14T01:17:44;10.38;;;6.28;;
35188;SDS011;21762;54.480;18.556;2022-11-14T01:20:30;15.40;;;7.05;;
35188;SDS011;21762;54.480;18.556;2022-11-14T01:23:17;12.13;;;6.32;;
35188;SDS011;21762;54.480;18.556;2022-11-14T01:26:04;14.32;;;6.85;;
35188;SDS011;21762;54.480;18.556;2022-11-14T01:28:54;12.60;;;6.85;;
35188;SDS011;21762;54.480;18.556;2022-11-14T01:31:42;15.05;;;7.70;;
35188;SDS011;21762;54.480;18.556;2022-11-14T01:34:32;13.48;;;7.20;;
35188;SDS011;21762;54.480;18.556;2022-11-14T01:37:18;14.52;;;7.05;;
35188;SDS011;21762;54.480;18.556;2022-11-14T01:40:06;11.57;;;6.45;;
35188;SDS011;21762;54.480;18.556;2022-11-14T01:46:11;10.48;;;4.75;;
35188;SDS011;21762;54.480;18.556;2022-11-14T01:49:02;7.18;;;4.80;;
35188;SDS011;21762;54.480;18.556;2022-11-14T01:51:52;7.13;;;3.83;;
35188;SDS011;21762;54.480;18.556;2022-11-14T01:54:44;8.15;;;4.07;;
35188;SDS011;21762;54.480;18.556;2022-11-14T01:57:33;4.90;;;3.63;;
35188;SDS011;21762;54.480;18.556;2022-11-14T02:00:22;8.90;;;4.32;;
35188;SDS011;21762;54.480;18.556;2022-11-14T02:03:10;7.50;;;4.90;;
35188;SDS011;21762;54.480;18.556;2022-11-14T02:05:58;7.25;;;3.20;;
35188;SDS011;21762;54.480;18.556;2022-11-14T02:08:46;6.18;;;4.00;;
35188;SDS011;21762;54.480;18.556;2022-11-14T02:11:35;6.88;;;4.50;;
35188;SDS011;21762;54.480;18.556;2022-11-14T02:14:26;6.75;;;3.22;;
35188;SDS011;21762;54.480;18.556;2022-11-14T02:17:14;8.07;;;3.90;;
35188;SDS011;21762;54.480;18.556;2022-11-14T02:20:19;7.40;;;3.13;;
35188;SDS011;21762;54.480;18.556;2022-11-14T02:23:08;11.20;;;3.67;;
35188;SDS011;21762;54.480;18.556;2022-11-14T02:25:56;8.00;;;3.88;;
35188;SDS011;21762;54.480;18.556;2022-11-14T02:28:43;6.40;;;3.55;;
35188;SDS011;21762;54.480;18.556;2022-11-14T02:31:29;6.90;;;3.28;;
35188;SDS011;21762;54.480;18.556;2022-11-14T02:34:16;6.30;;;3.20;;
35188;SDS011;21762;54.480;18.556;2022-11-14T02:37:05;7.55;;;3.22;;
35188;SDS011;21762;54.480;18.556;2022-11-14T02:39:53;7.90;;;3.42;;
35188;SDS011;21762;54.480;18.556;2022-11-14T02:42:40;6.30;;;3.20;;
35188;SDS011;21762;54.480;18.556;2022-11-14T02:45:27;7.25;;;3.60;;
35188;SDS011;21762;54.480;18.556;2022-11-14T02:48:14;7.07;;;3.38;;
35188;SDS011;21762;54.480;18.556;2022-11-14T02:51:01;6.22;;;3.00;;
35188;SDS011;21762;54.480;18.556;2022-11-14T02:53:49;6.18;;;3.10;;
35188;SDS011;21762;54.480;18.556;2022-11-14T02:56:36;5.25;;;3.20;;
35188;SDS011;21762;54.480;18.556;2022-11-14T02:59:23;6.80;;;2.90;;
35188;SDS011;21762;54.480;18.556;2022-11-14T03:02:10;4.65;;;2.90;;
35188;SDS011;21762;54.480;18.556;2022-11-14T03:04:58;6.15;;;3.30;;
35188;SDS011;21762;54.480;18.556;2022-11-14T03:07:45;6.72;;;2.70;;
35188;SDS011;21762;54.480;18.556;2022-11-14T03:10:34;8.05;;;2.90;;
35188;SDS011;21762;54.480;18.556;2022-11-14T03:13:21;8.45;;;3.05;;
35188;SDS011;21762;54.480;18.556;2022-11-14T03:16:09;6.93;;;2.80;;
35188;SDS011;21762;54.480;18.556;2022-11-14T03:18:56;9.32;;;3.63;;
35188;SDS011;21762;54.480;18.556;2022-11-14T03:21:43;7.18;;;2.42;;
35188;SDS011;21762;54.480;18.556;2022-11-14T03:24:30;8.60;;;3.40;;
35188;SDS011;21762;54.480;18.556;2022-11-14T03:27:18;4.75;;;3.38;;
35188;SDS011;21762;54.480;18.556;2022-11-14T03:30:05;8.13;;;3.45;;
35188;SDS011;21762;54.480;18.556;2022-11-14T03:32:54;7.07;;;3.08;;
35188;SDS011;21762;54.480;18.556;2022-11-14T03:35:41;6.50;;;3.53;;
35188;SDS011;21762;54.480;18.556;2022-11-14T03:38:28;7.82;;;3.95;;
35188;SDS011;21762;54.480;18.556;2022-11-14T03:41:15;7.50;;;3.20;;
35188;SDS011;21762;54.480;18.556;2022-11-14T03:44:05;7.75;;;3.92;;
35188;SDS011;21762;54.480;18.556;2022-11-14T03:46:52;7.28;;;3.58;;
35188;SDS011;21762;54.480;18.556;2022-11-14T03:49:39;6.78;;;4.30;;
35188;SDS011;21762;54.480;18.556;2022-11-14T03:52:26;8.02;;;4.10;;
35188;SDS011;21762;54.480;18.556;2022-11-14T03:55:12;6.25;;;3.83;;
35188;SDS011;21762;54.480;18.556;2022-11-14T03:57:59;6.03;;;4.05;;
35188;SDS011;21762;54.480;18.556;2022-11-14T04:00:48;7.88;;;4.13;;
35188;SDS011;21762;54.480;18.556;2022-11-14T04:03:34;9.13;;;4.00;;
35188;SDS011;21762;54.480;18.556;2022-11-14T04:06:22;10.63;;;4.85;;
35188;SDS011;21762;54.480;18.556;2022-11-14T04:09:08;7.57;;;4.05;;
35188;SDS011;21762;54.480;18.556;2022-11-14T04:11:56;7.35;;;4.60;;
35188;SDS011;21762;54.480;18.556;2022-11-14T04:14:42;7.22;;;4.30;;
35188;SDS011;21762;54.480;18.556;2022-11-14T04:17:31;8.23;;;4.25;;
35188;SDS011;21762;54.480;18.556;2022-11-14T04:20:22;9.88;;;4.03;;
35188;SDS011;21762;54.480;18.556;2022-11-14T04:23:10;10.30;;;4.60;;
35188;SDS011;21762;54.480;18.556;2022-11-14T04:25:56;7.32;;;4.00;;
35188;SDS011;21762;54.480;18.556;2022-11-14T04:28:43;8.27;;;4.20;;
35188;SDS011;21762;54.480;18.556;2022-11-14T04:31:31;8.30;;;4.03;;
35188;SDS011;21762;54.480;18.556;2022-11-14T04:34:19;10.35;;;4.60;;
35188;SDS011;21762;54.480;18.556;2022-11-14T04:37:05;9.75;;;4.72;;
35188;SDS011;21762;54.480;18.556;2022-11-14T04:39:52;9.07;;;4.38;;
35188;SDS011;21762;54.480;18.556;2022-11-14T04:42:43;8.32;;;3.90;;
35188;SDS011;21762;54.480;18.556;2022-11-14T04:45:30;7.82;;;3.80;;
35188;SDS011;21762;54.480;18.556;2022-11-14T04:48:18;8.13;;;4.35;;
35188;SDS011;21762;54.480;18.556;2022-11-14T04:51:06;8.63;;;4.63;;
35188;SDS011;21762;54.480;18.556;2022-11-14T04:53:53;11.18;;;4.95;;
35188;SDS011;21762;54.480;18.556;2022-11-14T04:56:42;8.50;;;4.70;;
35188;SDS011;21762;54.480;18.556;2022-11-14T04:59:28;9.68;;;5.18;;
35188;SDS011;21762;54.480;18.556;2022-11-14T05:02:15;10.68;;;5.88;;
35188;SDS011;21762;54.480;18.556;2022-11-14T05:05:02;10.27;;;5.07;;
35188;SDS011;21762;54.480;18.556;2022-11-14T05:07:50;10.50;;;5.47;;
35188;SDS011;21762;54.480;18.556;2022-11-14T05:10:41;15.55;;;6.10;;
35188;SDS011;21762;54.480;18.556;2022-11-14T05:13:28;10.57;;;6.18;;
35188;SDS011;21762;54.480;18.556;2022-11-14T05:16:15;12.15;;;5.95;;
35188;SDS011;21762;54.480;18.556;2022-11-14T05:19:02;16.08;;;6.43;;
35188;SDS011;21762;54.480;18.556;2022-11-14T05:21:49;11.38;;;5.72;;
35188;SDS011;21762;54.480;18.556;2022-11-14T05:24:37;12.73;;;6.10;;
35188;SDS011;21762;54.480;18.556;2022-11-14T05:27:24;14.88;;;6.32;;
35188;SDS011;21762;54.480;18.556;2022-11-14T05:30:11;10.68;;;5.82;;
35188;SDS011;21762;54.480;18.556;2022-11-14T05:32:59;10.30;;;6.10;;
35188;SDS011;21762;54.480;18.556;2022-11-14T05:35:46;9.48;;;6.38;;
35188;SDS011;21762;54.480;18.556;2022-11-14T05:38:32;11.05;;;6.22;;
35188;SDS011;21762;54.480;18.556;2022-11-14T05:41:21;14.18;;;6.85;;
35188;SDS011;21762;54.480;18.556;2022-11-14T05:44:08;15.52;;;6.70;;
35188;SDS011;21762;54.480;18.556;2022-11-14T05:46:55;17.20;;;7.32;;
35188;SDS011;21762;54.480;18.556;2022-11-14T05:49:42;15.15;;;7.43;;
35188;SDS011;21762;54.480;18.556;2022-11-14T05:52:29;12.30;;;6.40;;
35188;SDS011;21762;54.480;18.556;2022-11-14T05:55:16;14.23;;;8.20;;
35188;SDS011;21762;54.480;18.556;2022-11-14T05:58:10;14.57;;;7.75;;
35188;SDS011;21762;54.480;18.556;2022-11-14T06:01:03;18.08;;;8.30;;
35188;SDS011;21762;54.480;18.556;2022-11-14T06:03:51;16.58;;;7.72;;
35188;SDS011;21762;54.480;18.556;2022-11-14T06:06:37;18.05;;;8.70;;
35188;SDS011;21762;54.480;18.556;2022-11-14T06:09:24;16.65;;;8.27;;
35188;SDS011;21762;54.480;18.556;2022-11-14T06:12:10;15.75;;;8.38;;
35188;SDS011;21762;54.480;18.556;2022-11-14T06:14:59;17.85;;;8.95;;
35188;SDS011;21762;54.480;18.556;2022-11-14T06:17:50;16.42;;;8.73;;
35188;SDS011;21762;54.480;18.556;2022-11-14T06:20:39;19.48;;;9.63;;
35188;SDS011;21762;54.480;18.556;2022-11-14T06:23:26;17.88;;;8.63;;
35188;SDS011;21762;54.480;18.556;2022-11-14T06:26:16;18.58;;;8.68;;
35188;SDS011;21762;54.480;18.556;2022-11-14T06:29:09;22.05;;;9.65;;
35188;SDS011;21762;54.480;18.556;2022-11-14T06:31:57;18.15;;;10.05;;
35188;SDS011;21762;54.480;18.556;2022-11-14T06:34:44;18.65;;;9.93;;
35188;SDS011;21762;54.480;18.556;2022-11-14T06:37:31;25.85;;;11.52;;
35188;SDS011;21762;54.480;18.556;2022-11-14T06:40:17;23.70;;;10.70;;
35188;SDS011;21762;54.480;18.556;2022-11-14T06:43:07;27.17;;;11.70;;
35188;SDS011;21762;54.480;18.556;2022-11-14T06:45:53;23.10;;;9.90;;
35188;SDS011;21762;54.480;18.556;2022-11-14T06:48:42;23.08;;;10.20;;
35188;SDS011;21762;54.480;18.556;2022-11-14T06:51:29;26.00;;;11.27;;
35188;SDS011;21762;54.480;18.556;2022-11-14T06:54:16;26.20;;;10.43;;
35188;SDS011;21762;54.480;18.556;2022-11-14T06:57:04;22.52;;;10.68;;
35188;SDS011;21762;54.480;18.556;2022-11-14T06:59:51;20.10;;;10.02;;
35188;SDS011;21762;54.480;18.556;2022-11-14T07:02:38;26.65;;;11.50;;
35188;SDS011;21762;54.480;18.556;2022-11-14T07:05:26;21.92;;;10.52;;
35188;SDS011;21762;54.480;18.556;2022-11-14T07:08:13;28.10;;;11.63;;
35188;SDS011;21762;54.480;18.556;2022-11-14T07:11:04;25.95;;;11.82;;
35188;SDS011;21762;54.480;18.556;2022-11-14T07:13:53;23.00;;;11.10;;
35188;SDS011;21762;54.480;18.556;2022-11-14T07:16:40;21.33;;;10.90;;
35188;SDS011;21762;54.480;18.556;2022-11-14T07:19:27;27.15;;;13.45;;
35188;SDS011;21762;54.480;18.556;2022-11-14T07:22:15;27.83;;;12.50;;
35188;SDS011;21762;54.480;18.556;2022-11-14T07:25:02;25.23;;;12.13;;
35188;SDS011;21762;54.480;18.556;2022-11-14T07:27:49;30.63;;;13.38;;
35188;SDS011;21762;54.480;18.556;2022-11-14T07:30:37;22.95;;;12.85;;
35188;SDS011;21762;54.480;18.556;2022-11-14T07:33:24;46.60;;;13.27;;
35188;SDS011;21762;54.480;18.556;2022-11-14T07:36:11;29.48;;;13.70;;
35188;SDS011;21762;54.480;18.556;2022-11-14T07:39:00;26.80;;;13.68;;
35188;SDS011;21762;54.480;18.556;2022-11-14T07:41:47;24.92;;;12.57;;
35188;SDS011;21762;54.480;18.556;2022-11-14T07:44:34;25.08;;;12.57;;
35188;SDS011;21762;54.480;18.556;2022-11-14T07:47:21;34.35;;;14.70;;
35188;SDS011;21762;54.480;18.556;2022-11-14T07:50:08;26.58;;;13.52;;
35188;SDS011;21762;54.480;18.556;2022-11-14T07:52:57;34.88;;;14.98;;
35188;SDS011;21762;54.480;18.556;2022-11-14T07:55:45;30.48;;;14.23;;
35188;SDS011;21762;54.480;18.556;2022-11-14T07:58:33;34.50;;;15.07;;
35188;SDS011;21762;54.480;18.556;2022-11-14T08:01:20;32.90;;;14.30;;
35188;SDS011;21762;54.480;18.556;2022-11-14T08:04:07;32.88;;;14.80;;
35188;SDS011;21762;54.480;18.556;2022-11-14T08:06:55;29.08;;;13.93;;
35188;SDS011;21762;54.480;18.556;2022-11-14T08:09:42;28.05;;;13.75;;
35188;SDS011;21762;54.480;18.556;2022-11-14T08:12:30;31.05;;;14.27;;
35188;SDS011;21762;54.480;18.556;2022-11-14T08:15:17;29.85;;;13.48;;
35188;SDS011;21762;54.480;18.556;2022-11-14T08:18:04;24.20;;;11.30;;
35188;SDS011;21762;54.480;18.556;2022-11-14T08:20:51;31.40;;;13.73;;
35188;SDS011;21762;54.480;18.556;2022-11-14T08:23:42;36.08;;;14.63;;
35188;SDS011;21762;54.480;18.556;2022-11-14T08:26:30;32.05;;;14.68;;
35188;SDS011;21762;54.480;18.556;2022-11-14T08:29:19;26.45;;;13.55;;
35188;SDS011;21762;54.480;18.556;2022-11-14T08:32:10;30.80;;;14.85;;
35188;SDS011;21762;54.480;18.556;2022-11-14T08:35:00;31.73;;;14.73;;
35188;SDS011;21762;54.480;18.556;2022-11-14T08:37:46;37.60;;;14.02;;
35188;SDS011;21762;54.480;18.556;2022-11-14T08:40:34;32.15;;;14.23;;
35188;SDS011;21762;54.480;18.556;2022-11-14T08:43:21;32.28;;;15.93;;
35188;SDS011;21762;54.480;18.556;2022-11-14T08:46:09;35.17;;;15.00;;
35188;SDS011;21762;54.480;18.556;2022-11-14T08:48:56;32.55;;;16.23;;
35188;SDS011;21762;54.480;18.556;2022-11-14T08:51:43;35.65;;;16.50;;
35188;SDS011;21762;54.480;18.556;2022-11-14T08:54:31;48.90;;;19.35;;
35188;SDS011;21762;54.480;18.556;2022-11-14T08:57:17;48.58;;;20.92;;
35188;SDS011;21762;54.480;18.556;2022-11-14T09:00:05;52.70;;;23.33;;
35188;SDS011;21762;54.480;18.556;2022-11-14T09:02:54;50.50;;;22.38;;
35188;SDS011;21762;54.480;18.556;2022-11-14T09:05:41;45.63;;;21.30;;
35188;SDS011;21762;54.480;18.556;2022-11-14T09:08:29;46.38;;;22.17;;
35188;SDS011;21762;54.480;18.556;2022-11-14T09:11:17;39.90;;;19.08;;
35188;SDS011;21762;54.480;18.556;2022-11-14T09:14:03;40.40;;;17.23;;
35188;SDS011;21762;54.480;18.556;2022-11-14T09:16:51;36.08;;;16.50;;
35188;SDS011;21762;54.480;18.556;2022-11-14T09:19:39;41.53;;;17.90;;
35188;SDS011;21762;54.480;18.556;2022-11-14T09:22:26;36.30;;;16.80;;
35188;SDS011;21762;54.480;18.556;2022-11-14T09:25:14;46.47;;;18.58;;
35188;SDS011;21762;54.480;18.556;2022-11-14T09:28:02;33.90;;;16.35;;
35188;SDS011;21762;54.480;18.556;2022-11-14T09:30:50;37.35;;;19.17;;
35188;SDS011;21762;54.480;18.556;2022-11-14T09:33:37;34.55;;;16.67;;
35188;SDS011;21762;54.480;18.556;2022-11-14T09:36:26;35.88;;;15.93;;
35188;SDS011;21762;54.480;18.556;2022-11-14T09:39:13;32.65;;;16.20;;
35188;SDS011;21762;54.480;18.556;2022-11-14T09:42:05;33.80;;;15.75;;
35188;SDS011;21762;54.480;18.556;2022-11-14T09:45:04;36.45;;;16.83;;
35188;SDS011;21762;54.480;18.556;2022-11-14T09:47:55;29.48;;;14.38;;
35188;SDS011;21762;54.480;18.556;2022-11-14T09:50:50;30.08;;;15.15;;
35188;SDS011;21762;54.480;18.556;2022-11-14T09:53:45;25.25;;;12.75;;
35188;SDS011;21762;54.480;18.556;2022-11-14T09:56:33;23.55;;;11.90;;
35188;SDS011;21762;54.480;18.556;2022-11-14T09:59:21;26.08;;;12.13;;
35188;SDS011;21762;54.480;18.556;2022-11-14T10:02:18;28.88;;;13.18;;
35188;SDS011;21762;54.480;18.556;2022-11-14T10:05:16;23.15;;;11.45;;
35188;SDS011;21762;54.480;18.556;2022-11-14T10:11:36;24.95;;;12.80;;
35188;SDS011;21762;54.480;18.556;2022-11-14T10:14:34;21.10;;;11.98;;
35188;SDS011;21762;54.480;18.556;2022-11-14T10:17:37;30.05;;;12.38;;
35188;SDS011;21762;54.480;18.556;2022-11-14T10:20:32;24.70;;;12.40;;
35188;SDS011;21762;54.480;18.556;2022-11-14T10:23:29;22.08;;;11.25;;
35188;SDS011;21762;54.480;18.556;2022-11-14T10:26:24;20.40;;;10.55;;
35188;SDS011;21762;54.480;18.556;2022-11-14T10:29:24;19.80;;;10.18;;
35188;SDS011;21762;54.480;18.556;2022-11-14T10:32:28;14.98;;;9.27;;
35188;SDS011;21762;54.480;18.556;2022-11-14T10:35:22;15.35;;;8.23;;
35188;SDS011;21762;54.480;18.556;2022-11-14T10:38:14;16.40;;;7.82;;
35188;SDS011;21762;54.480;18.556;2022-11-14T10:41:04;15.98;;;7.38;;
35188;SDS011;21762;54.480;18.556;2022-11-14T10:43:53;13.93;;;7.63;;
35188;SDS011;21762;54.480;18.556;2022-11-14T10:46:43;13.95;;;7.28;;
35188;SDS011;21762;54.480;18.556;2022-11-14T10:49:34;18.30;;;7.47;;
35188;SDS011;21762;54.480;18.556;2022-11-14T10:52:30;14.38;;;5.72;;
35188;SDS011;21762;54.480;18.556;2022-11-14T10:55:21;12.35;;;6.75;;
35188;SDS011;21762;54.480;18.556;2022-11-14T10:58:21;11.35;;;6.10;;
35188;SDS011;21762;54.480;18.556;2022-11-14T11:04:23;12.55;;;7.30;;
35188;SDS011;21762;54.480;18.556;2022-11-14T11:07:18;11.63;;;7.03;;
35188;SDS011;21762;54.480;18.556;2022-11-14T11:10:27;12.85;;;6.47;;
35188;SDS011;21762;54.480;18.556;2022-11-14T11:13:31;11.40;;;6.63;;
35188;SDS011;21762;54.480;18.556;2022-11-14T11:16:21;13.65;;;6.93;;
35188;SDS011;21762;54.480;18.556;2022-11-14T11:19:22;12.02;;;7.20;;
35188;SDS011;21762;54.480;18.556;2022-11-14T11:22:24;16.77;;;8.02;;
35188;SDS011;21762;54.480;18.556;2022-11-14T11:25:22;14.27;;;6.45;;
35188;SDS011;21762;54.480;18.556;2022-11-14T11:28:11;11.65;;;7.55;;
35188;SDS011;21762;54.480;18.556;2022-11-14T11:30:59;13.98;;;7.63;;
35188;SDS011;21762;54.480;18.556;2022-11-14T11:33:47;14.50;;;8.15;;
35188;SDS011;21762;54.480;18.556;2022-11-14T11:36:37;14.18;;;8.57;;
35188;SDS011;21762;54.480;18.556;2022-11-14T11:39:28;25.50;;;9.70;;
35188;SDS011;21762;54.480;18.556;2022-11-14T11:42:16;17.63;;;8.98;;
35188;SDS011;21762;54.480;18.556;2022-11-14T11:45:08;18.75;;;10.15;;
35188;SDS011;21762;54.480;18.556;2022-11-14T11:48:00;15.45;;;9.43;;
35188;SDS011;21762;54.480;18.556;2022-11-14T11:50:49;16.67;;;10.88;;
35188;SDS011;21762;54.480;18.556;2022-11-14T11:53:38;17.95;;;10.57;;
35188;SDS011;21762;54.480;18.556;2022-11-14T11:56:30;16.42;;;10.27;;
35188;SDS011;21762;54.480;18.556;2022-11-14T11:59:20;23.42;;;12.32;;
35188;SDS011;21762;54.480;18.556;2022-11-14T12:02:17;26.75;;;12.75;;
35188;SDS011;21762;54.480;18.556;2022-11-14T12:05:09;25.30;;;12.52;;
35188;SDS011;21762;54.480;18.556;2022-11-14T12:08:00;19.15;;;10.80;;
35188;SDS011;21762;54.480;18.556;2022-11-14T12:10:50;19.58;;;11.80;;
35188;SDS011;21762;54.480;18.556;2022-11-14T12:17:05;19.88;;;12.35;;
35188;SDS011;21762;54.480;18.556;2022-11-14T12:20:14;28.13;;;12.55;;
35188;SDS011;21762;54.480;18.556;2022-11-14T12:23:25;24.10;;;12.32;;
35188;SDS011;21762;54.480;18.556;2022-11-14T12:26:42;26.00;;;13.00;;
35188;SDS011;21762;54.480;18.556;2022-11-14T12:29:43;20.80;;;12.45;;
35188;SDS011;21762;54.480;18.556;2022-11-14T12:32:36;19.70;;;12.50;;
35188;SDS011;21762;54.480;18.556;2022-11-14T12:35:25;21.08;;;13.00;;
35188;SDS011;21762;54.480;18.556;2022-11-14T12:38:15;33.10;;;14.32;;
35188;SDS011;21762;54.480;18.556;2022-11-14T12:41:04;22.88;;;13.00;;
35188;SDS011;21762;54.480;18.556;2022-11-14T12:43:53;23.35;;;11.80;;
35188;SDS011;21762;54.480;18.556;2022-11-14T12:47:16;20.70;;;12.85;;
35188;SDS011;21762;54.480;18.556;2022-11-14T12:56:37;22.85;;;14.27;;
35188;SDS011;21762;54.480;18.556;2022-11-14T12:59:39;24.10;;;13.25;;
35188;SDS011;21762;54.480;18.556;2022-11-14T13:02:42;25.67;;;14.82;;
35188;SDS011;21762;54.480;18.556;2022-11-14T13:05:37;28.85;;;15.77;;
35188;SDS011;21762;54.480;18.556;2022-11-14T13:08:51;27.50;;;16.20;;
35188;SDS011;21762;54.480;18.556;2022-11-14T13:11:44;23.65;;;15.07;;
35188;SDS011;21762;54.480;18.556;2022-11-14T13:14:48;24.00;;;14.15;;
35188;SDS011;21762;54.480;18.556;2022-11-14T13:18:01;24.25;;;14.27;;
35188;SDS011;21762;54.480;18.556;2022-11-14T13:21:16;20.27;;;12.65;;
35188;SDS011;21762;54.480;18.556;2022-11-14T13:24:38;22.15;;;13.52;;
35188;SDS011;21762;54.480;18.556;2022-11-14T13:31:45;47.47;;;21.05;;
35188;SDS011;21762;54.480;18.556;2022-11-14T13:34:38;25.80;;;15.13;;
35188;SDS011;21762;54.480;18.556;2022-11-14T13:37:33;33.38;;;15.10;;
35188;SDS011;21762;54.480;18.556;2022-11-14T13:43:20;28.73;;;15.70;;
35188;SDS011;21762;54.480;18.556;2022-11-14T13:46:12;27.63;;;15.70;;
35188;SDS011;21762;54.480;18.556;2022-11-14T13:49:10;29.17;;;16.55;;
35188;SDS011;21762;54.480;18.556;2022-11-14T13:52:05;32.88;;;17.27;;
35188;SDS011;21762;54.480;18.556;2022-11-14T13:54:52;28.73;;;16.33;;
35188;SDS011;21762;54.480;18.556;2022-11-14T13:57:40;29.30;;;15.93;;
35188;SDS011;21762;54.480;18.556;2022-11-14T14:00:41;30.92;;;16.00;;
35188;SDS011;21762;54.480;18.556;2022-11-14T14:03:40;43.63;;;16.75;;
35188;SDS011;21762;54.480;18.556;2022-11-14T14:06:39;35.42;;;14.60;;
35188;SDS011;21762;54.480;18.556;2022-11-14T14:09:36;24.60;;;13.35;;
35188;SDS011;21762;54.480;18.556;2022-11-14T14:12:32;20.98;;;14.18;;
35188;SDS011;21762;54.480;18.556;2022-11-14T14:15:28;22.45;;;13.20;;
35188;SDS011;21762;54.480;18.556;2022-11-14T14:18:21;33.35;;;14.13;;
35188;SDS011;21762;54.480;18.556;2022-11-14T14:21:15;20.83;;;12.52;;
35188;SDS011;21762;54.480;18.556;2022-11-14T14:24:13;19.17;;;12.68;;
35188;SDS011;21762;54.480;18.556;2022-11-14T14:27:08;20.42;;;12.95;;
35188;SDS011;21762;54.480;18.556;2022-11-14T14:30:02;19.98;;;13.70;;
35188;SDS011;21762;54.480;18.556;2022-11-14T14:33:04;143.43;;;19.23;;
35188;SDS011;21762;54.480;18.556;2022-11-14T14:35:57;36.38;;;14.27;;
35188;SDS011;21762;54.480;18.556;2022-11-14T14:38:44;20.48;;;13.55;;
35188;SDS011;21762;54.480;18.556;2022-11-14T14:41:32;40.40;;;14.98;;
35188;SDS011;21762;54.480;18.556;2022-11-14T14:44:22;22.85;;;14.07;;
35188;SDS011;21762;54.480;18.556;2022-11-14T14:47:14;23.20;;;14.30;;
35188;SDS011;21762;54.480;18.556;2022-11-14T14:50:03;27.05;;;13.50;;
35188;SDS011;21762;54.480;18.556;2022-11-14T14:52:55;23.05;;;14.68;;
35188;SDS011;21762;54.480;18.556;2022-11-14T14:55:49;21.25;;;13.23;;
35188;SDS011;21762;54.480;18.556;2022-11-14T14:58:38;23.13;;;14.18;;
35188;SDS011;21762;54.480;18.556;2022-11-14T15:01:27;23.88;;;12.77;;
35188;SDS011;21762;54.480;18.556;2022-11-14T15:07:05;25.35;;;14.57;;
35188;SDS011;21762;54.480;18.556;2022-11-14T15:10:02;24.73;;;15.07;;
35188;SDS011;21762;54.480;18.556;2022-11-14T15:12:50;24.83;;;15.75;;
35188;SDS011;21762;54.480;18.556;2022-11-14T15:15:39;29.95;;;17.05;;
35188;SDS011;21762;54.480;18.556;2022-11-14T15:18:27;26.00;;;17.02;;
35188;SDS011;21762;54.480;18.556;2022-11-14T15:21:15;23.30;;;16.20;;
35188;SDS011;21762;54.480;18.556;2022-11-14T15:24:12;25.77;;;17.58;;
35188;SDS011;21762;54.480;18.556;2022-11-14T15:27:02;25.33;;;16.67;;
35188;SDS011;21762;54.480;18.556;2022-11-14T15:29:51;28.20;;;17.67;;
35188;SDS011;21762;54.480;18.556;2022-11-14T15:32:44;26.95;;;17.27;;
35188;SDS011;21762;54.480;18.556;2022-11-14T15:35:34;30.95;;;20.30;;
35188;SDS011;21762;54.480;18.556;2022-11-14T15:38:30;31.74;;;18.73;;
35188;SDS011;21762;54.480;18.556;2022-11-14T15:41:33;29.10;;;19.40;;
35188;SDS011;21762;54.480;18.556;2022-11-14T15:44:28;35.67;;;20.98;;
35188;SDS011;21762;54.480;18.556;2022-11-14T15:47:17;33.40;;;20.10;;
35188;SDS011;21762;54.480;18.556;2022-11-14T15:50:24;36.55;;;21.38;;
35188;SDS011;21762;54.480;18.556;2022-11-14T15:53:16;35.70;;;20.55;;
35188;SDS011;21762;54.480;18.556;2022-11-14T15:56:07;38.13;;;22.25;;
35188;SDS011;21762;54.480;18.556;2022-11-14T15:58:57;39.75;;;24.08;;
35188;SDS011;21762;54.480;18.556;2022-11-14T16:01:44;38.35;;;23.08;;
35188;SDS011;21762;54.480;18.556;2022-11-14T16:04:33;38.65;;;23.15;;
35188;SDS011;21762;54.480;18.556;2022-11-14T16:07:23;37.20;;;23.75;;
35188;SDS011;21762;54.480;18.556;2022-11-14T16:10:12;40.75;;;24.10;;
35188;SDS011;21762;54.480;18.556;2022-11-14T16:12:59;40.42;;;25.00;;
35188;SDS011;21762;54.480;18.556;2022-11-14T16:15:46;42.45;;;24.73;;
35188;SDS011;21762;54.480;18.556;2022-11-14T16:18:34;43.88;;;24.90;;
35188;SDS011;21762;54.480;18.556;2022-11-14T16:21:20;39.75;;;24.73;;
35188;SDS011;21762;54.480;18.556;2022-11-14T16:24:12;42.83;;;25.83;;
35188;SDS011;21762;54.480;18.556;2022-11-14T16:27:01;46.50;;;26.20;;
35188;SDS011;21762;54.480;18.556;2022-11-14T16:29:48;45.78;;;25.92;;
35188;SDS011;21762;54.480;18.556;2022-11-14T16:32:35;47.60;;;25.88;;
35188;SDS011;21762;54.480;18.556;2022-11-14T16:35:23;48.10;;;25.48;;
35188;SDS011;21762;54.480;18.556;2022-11-14T16:38:11;45.17;;;25.27;;
35188;SDS011;21762;54.480;18.556;2022-11-14T16:41:03;41.25;;;25.48;;
35188;SDS011;21762;54.480;18.556;2022-11-14T16:43:52;40.60;;;24.02;;
35188;SDS011;21762;54.480;18.556;2022-11-14T16:46:39;41.38;;;25.23;;
35188;SDS011;21762;54.480;18.556;2022-11-14T16:49:27;44.78;;;25.40;;
35188;SDS011;21762;54.480;18.556;2022-11-14T16:52:14;43.92;;;25.92;;
35188;SDS011;21762;54.480;18.556;2022-11-14T16:55:01;46.83;;;27.30;;
35188;SDS011;21762;54.480;18.556;2022-11-14T16:57:52;45.20;;;26.40;;
35188;SDS011;21762;54.480;18.556;2022-11-14T17:00:41;46.35;;;25.70;;
35188;SDS011;21762;54.480;18.556;2022-11-14T17:03:29;45.28;;;26.23;;